sensor_id;sensor_type;location;lat;lon;timestamp;P1;durP1;ratioP1;P2;durP2;ratioP2
69837;SDS011;57135;51.992;4.476;2023-07-13T00:00:26;7.92;;;6.13;;
69837;SDS011;57135;51.992;4.476;2023-07-13T00:02:52;9.35;;;7.01;;
69837;SDS011;57135;51.992;4.476;2023-07-13T00:05:21;9.50;;;6.95;;
69837;SDS011;57135;51.992;4.476;2023-07-13T00:07:47;9.30;;;6.94;;
69837;SDS011;57135;51.992;4.476;2023-07-13T00:10:14;9.00;;;6.54;;
69837;SDS011;57135;51.992;4.476;2023-07-13T00:12:40;7.86;;;6.08;;
69837;SDS011;57135;51.992;4.476;2023-07-13T00:15:17;8.94;;;6.64;;
69837;SDS011;57135;51.992;4.476;2023-07-13T00:17:50;9.38;;;6.74;;
69837;SDS011;57135;51.992;4.476;2023-07-13T00:20:16;8.33;;;6.10;;
69837;SDS011;57135;51.992;4.476;2023-07-13T00:22:42;7.80;;;5.76;;
69837;SDS011;57135;51.992;4.476;2023-07-13T00:25:11;7.65;;;5.68;;
69837;SDS011;57135;51.992;4.476;2023-07-13T00:27:37;8.88;;;6.38;;
69837;SDS011;57135;51.992;4.476;2023-07-13T00:30:03;9.10;;;6.43;;
69837;SDS011;57135;51.992;4.476;2023-07-13T00:32:30;8.58;;;6.16;;
69837;SDS011;57135;51.992;4.476;2023-07-13T00:34:57;8.12;;;5.94;;
69837;SDS011;57135;51.992;4.476;2023-07-13T00:37:25;8.13;;;5.84;;
69837;SDS011;57135;51.992;4.476;2023-07-13T00:39:51;7.86;;;5.64;;
69837;SDS011;57135;51.992;4.476;2023-07-13T00:42:16;8.20;;;5.91;;
69837;SDS011;57135;51.992;4.476;2023-07-13T00:45:00;8.38;;;6.00;;
69837;SDS011;57135;51.992;4.476;2023-07-13T00:47:29;8.41;;;5.94;;
69837;SDS011;57135;51.992;4.476;2023-07-13T00:49:55;7.78;;;5.63;;
69837;SDS011;57135;51.992;4.476;2023-07-13T00:52:20;7.25;;;5.27;;
69837;SDS011;57135;51.992;4.476;2023-07-13T00:54:46;7.36;;;5.31;;
69837;SDS011;57135;51.992;4.476;2023-07-13T00:57:14;7.46;;;5.46;;
69837;SDS011;57135;51.992;4.476;2023-07-13T00:59:43;7.25;;;5.41;;
69837;SDS011;57135;51.992;4.476;2023-07-13T01:02:13;7.63;;;5.61;;
69837;SDS011;57135;51.992;4.476;2023-07-13T01:04:38;7.78;;;5.67;;
69837;SDS011;57135;51.992;4.476;2023-07-13T01:07:04;7.62;;;5.59;;
69837;SDS011;57135;51.992;4.476;2023-07-13T01:09:31;8.37;;;5.92;;
69837;SDS011;57135;51.992;4.476;2023-07-13T01:11:57;7.69;;;5.58;;
69837;SDS011;57135;51.992;4.476;2023-07-13T01:14:24;7.30;;;5.45;;
69837;SDS011;57135;51.992;4.476;2023-07-13T01:16:50;6.66;;;4.98;;
69837;SDS011;57135;51.992;4.476;2023-07-13T01:21:49;6.02;;;4.56;;
69837;SDS011;57135;51.992;4.476;2023-07-13T01:24:16;6.61;;;4.80;;
69837;SDS011;57135;51.992;4.476;2023-07-13T01:26:41;6.25;;;4.52;;
69837;SDS011;57135;51.992;4.476;2023-07-13T01:29:07;5.79;;;4.35;;
69837;SDS011;57135;51.992;4.476;2023-07-13T01:31:32;5.93;;;4.39;;
69837;SDS011;57135;51.992;4.476;2023-07-13T01:33:58;5.55;;;4.17;;
69837;SDS011;57135;51.992;4.476;2023-07-13T01:36:24;4.64;;;3.51;;
69837;SDS011;57135;51.992;4.476;2023-07-13T01:38:49;4.91;;;3.74;;
69837;SDS011;57135;51.992;4.476;2023-07-13T01:41:15;4.51;;;3.39;;
69837;SDS011;57135;51.992;4.476;2023-07-13T01:43:41;4.66;;;3.54;;
69837;SDS011;57135;51.992;4.476;2023-07-13T01:46:06;3.90;;;2.98;;
69837;SDS011;57135;51.992;4.476;2023-07-13T01:48:31;3.49;;;2.74;;
69837;SDS011;57135;51.992;4.476;2023-07-13T01:50:57;2.90;;;2.31;;
69837;SDS011;57135;51.992;4.476;2023-07-13T01:53:22;2.96;;;2.35;;
69837;SDS011;57135;51.992;4.476;2023-07-13T01:55:48;2.54;;;2.08;;
69837;SDS011;57135;51.992;4.476;2023-07-13T01:58:14;2.43;;;1.98;;
69837;SDS011;57135;51.992;4.476;2023-07-13T02:00:39;2.74;;;2.25;;
69837;SDS011;57135;51.992;4.476;2023-07-13T02:03:05;2.55;;;2.13;;
69837;SDS011;57135;51.992;4.476;2023-07-13T02:05:30;2.79;;;2.34;;
69837;SDS011;57135;51.992;4.476;2023-07-13T02:07:56;3.13;;;2.53;;
69837;SDS011;57135;51.992;4.476;2023-07-13T02:10:21;3.35;;;2.73;;
69837;SDS011;57135;51.992;4.476;2023-07-13T02:12:48;3.12;;;2.60;;
69837;SDS011;57135;51.992;4.476;2023-07-13T02:15:15;3.15;;;2.61;;
69837;SDS011;57135;51.992;4.476;2023-07-13T02:17:41;3.52;;;2.90;;
69837;SDS011;57135;51.992;4.476;2023-07-13T02:20:07;4.05;;;3.24;;
69837;SDS011;57135;51.992;4.476;2023-07-13T02:22:34;4.16;;;3.31;;
69837;SDS011;57135;51.992;4.476;2023-07-13T02:25:00;4.39;;;3.54;;
69837;SDS011;57135;51.992;4.476;2023-07-13T02:27:25;5.59;;;4.26;;
69837;SDS011;57135;51.992;4.476;2023-07-13T02:29:51;5.77;;;4.29;;
69837;SDS011;57135;51.992;4.476;2023-07-13T02:32:17;6.28;;;4.66;;
69837;SDS011;57135;51.992;4.476;2023-07-13T02:34:44;5.81;;;4.43;;
69837;SDS011;57135;51.992;4.476;2023-07-13T02:37:10;5.95;;;4.66;;
69837;SDS011;57135;51.992;4.476;2023-07-13T02:39:35;6.58;;;4.99;;
69837;SDS011;57135;51.992;4.476;2023-07-13T02:42:01;6.70;;;5.05;;
69837;SDS011;57135;51.992;4.476;2023-07-13T02:44:26;7.27;;;5.50;;
69837;SDS011;57135;51.992;4.476;2023-07-13T02:46:52;7.35;;;5.43;;
69837;SDS011;57135;51.992;4.476;2023-07-13T02:49:18;7.90;;;5.76;;
69837;SDS011;57135;51.992;4.476;2023-07-13T02:51:43;7.69;;;5.63;;
69837;SDS011;57135;51.992;4.476;2023-07-13T02:54:09;7.43;;;5.51;;
69837;SDS011;57135;51.992;4.476;2023-07-13T02:56:36;7.77;;;5.80;;
69837;SDS011;57135;51.992;4.476;2023-07-13T02:59:04;8.41;;;6.17;;
69837;SDS011;57135;51.992;4.476;2023-07-13T03:01:29;8.68;;;6.35;;
69837;SDS011;57135;51.992;4.476;2023-07-13T03:04:00;8.43;;;6.10;;
69837;SDS011;57135;51.992;4.476;2023-07-13T03:06:26;8.98;;;6.50;;
69837;SDS011;57135;51.992;4.476;2023-07-13T03:08:54;8.85;;;6.38;;
69837;SDS011;57135;51.992;4.476;2023-07-13T03:11:20;8.02;;;5.87;;
69837;SDS011;57135;51.992;4.476;2023-07-13T03:13:46;8.44;;;6.27;;
69837;SDS011;57135;51.992;4.476;2023-07-13T03:16:13;8.60;;;6.34;;
69837;SDS011;57135;51.992;4.476;2023-07-13T03:18:41;8.42;;;6.20;;
69837;SDS011;57135;51.992;4.476;2023-07-13T03:21:07;8.41;;;6.23;;
69837;SDS011;57135;51.992;4.476;2023-07-13T03:23:32;8.30;;;6.15;;
69837;SDS011;57135;51.992;4.476;2023-07-13T03:26:05;9.15;;;6.43;;
69837;SDS011;57135;51.992;4.476;2023-07-13T03:28:31;8.81;;;6.32;;
69837;SDS011;57135;51.992;4.476;2023-07-13T03:31:04;8.61;;;6.38;;
69837;SDS011;57135;51.992;4.476;2023-07-13T03:33:57;8.14;;;6.02;;
69837;SDS011;57135;51.992;4.476;2023-07-13T03:36:23;7.92;;;5.88;;
69837;SDS011;57135;51.992;4.476;2023-07-13T03:38:52;7.84;;;5.90;;
69837;SDS011;57135;51.992;4.476;2023-07-13T03:41:20;7.82;;;5.93;;
69837;SDS011;57135;51.992;4.476;2023-07-13T03:43:46;7.26;;;5.55;;
69837;SDS011;57135;51.992;4.476;2023-07-13T03:46:15;8.14;;;6.07;;
69837;SDS011;57135;51.992;4.476;2023-07-13T03:48:42;8.64;;;6.26;;
69837;SDS011;57135;51.992;4.476;2023-07-13T03:51:10;8.34;;;6.07;;
69837;SDS011;57135;51.992;4.476;2023-07-13T03:53:39;7.94;;;5.83;;
69837;SDS011;57135;51.992;4.476;2023-07-13T03:56:06;8.40;;;6.03;;
69837;SDS011;57135;51.992;4.476;2023-07-13T03:58:32;8.75;;;6.29;;
69837;SDS011;57135;51.992;4.476;2023-07-13T04:01:00;7.48;;;5.51;;
69837;SDS011;57135;51.992;4.476;2023-07-13T04:03:27;7.11;;;5.37;;
69837;SDS011;57135;51.992;4.476;2023-07-13T04:05:56;6.95;;;5.34;;
69837;SDS011;57135;51.992;4.476;2023-07-13T04:08:26;7.07;;;5.38;;
69837;SDS011;57135;51.992;4.476;2023-07-13T04:10:52;6.22;;;4.74;;
69837;SDS011;57135;51.992;4.476;2023-07-13T04:13:18;6.93;;;5.16;;
69837;SDS011;57135;51.992;4.476;2023-07-13T04:15:43;7.52;;;5.65;;
69837;SDS011;57135;51.992;4.476;2023-07-13T04:18:09;7.06;;;5.40;;
69837;SDS011;57135;51.992;4.476;2023-07-13T04:20:34;6.63;;;5.09;;
69837;SDS011;57135;51.992;4.476;2023-07-13T04:23:00;6.88;;;5.26;;
69837;SDS011;57135;51.992;4.476;2023-07-13T04:25:25;7.27;;;5.52;;
69837;SDS011;57135;51.992;4.476;2023-07-13T04:27:52;6.34;;;4.82;;
69837;SDS011;57135;51.992;4.476;2023-07-13T04:30:18;6.39;;;4.89;;
69837;SDS011;57135;51.992;4.476;2023-07-13T04:32:44;6.56;;;5.02;;
69837;SDS011;57135;51.992;4.476;2023-07-13T04:35:10;5.98;;;4.62;;
69837;SDS011;57135;51.992;4.476;2023-07-13T04:37:35;5.64;;;4.46;;
69837;SDS011;57135;51.992;4.476;2023-07-13T04:40:01;5.13;;;4.23;;
69837;SDS011;57135;51.992;4.476;2023-07-13T04:42:28;5.88;;;4.67;;
69837;SDS011;57135;51.992;4.476;2023-07-13T04:44:54;6.06;;;4.67;;
69837;SDS011;57135;51.992;4.476;2023-07-13T04:47:19;6.34;;;5.00;;
69837;SDS011;57135;51.992;4.476;2023-07-13T04:49:45;5.97;;;4.74;;
69837;SDS011;57135;51.992;4.476;2023-07-13T04:52:10;5.84;;;4.71;;
69837;SDS011;57135;51.992;4.476;2023-07-13T04:54:36;5.25;;;4.32;;
69837;SDS011;57135;51.992;4.476;2023-07-13T04:57:03;4.93;;;4.14;;
69837;SDS011;57135;51.992;4.476;2023-07-13T04:59:31;5.32;;;4.45;;
69837;SDS011;57135;51.992;4.476;2023-07-13T05:01:57;4.89;;;4.13;;
69837;SDS011;57135;51.992;4.476;2023-07-13T05:04:23;4.55;;;3.92;;
69837;SDS011;57135;51.992;4.476;2023-07-13T05:06:49;4.31;;;3.80;;
69837;SDS011;57135;51.992;4.476;2023-07-13T05:09:15;4.64;;;4.01;;
69837;SDS011;57135;51.992;4.476;2023-07-13T05:11:41;4.62;;;4.01;;
69837;SDS011;57135;51.992;4.476;2023-07-13T05:14:08;4.32;;;3.81;;
69837;SDS011;57135;51.992;4.476;2023-07-13T05:16:34;4.60;;;4.00;;
69837;SDS011;57135;51.992;4.476;2023-07-13T05:19:00;4.54;;;3.89;;
69837;SDS011;57135;51.992;4.476;2023-07-13T05:21:25;4.49;;;3.92;;
69837;SDS011;57135;51.992;4.476;2023-07-13T05:23:51;4.12;;;3.66;;
69837;SDS011;57135;51.992;4.476;2023-07-13T05:26:16;4.19;;;3.69;;
69837;SDS011;57135;51.992;4.476;2023-07-13T05:28:42;4.25;;;3.81;;
69837;SDS011;57135;51.992;4.476;2023-07-13T05:31:08;4.16;;;3.76;;
69837;SDS011;57135;51.992;4.476;2023-07-13T05:33:35;4.25;;;3.78;;
69837;SDS011;57135;51.992;4.476;2023-07-13T05:36:00;3.99;;;3.59;;
69837;SDS011;57135;51.992;4.476;2023-07-13T05:38:27;4.46;;;3.92;;
69837;SDS011;57135;51.992;4.476;2023-07-13T05:40:53;4.57;;;4.01;;
69837;SDS011;57135;51.992;4.476;2023-07-13T05:43:20;4.94;;;4.40;;
69837;SDS011;57135;51.992;4.476;2023-07-13T05:45:47;4.25;;;3.86;;
69837;SDS011;57135;51.992;4.476;2023-07-13T05:48:14;4.48;;;4.07;;
69837;SDS011;57135;51.992;4.476;2023-07-13T05:50:39;4.34;;;3.94;;
69837;SDS011;57135;51.992;4.476;2023-07-13T05:53:05;4.36;;;4.03;;
69837;SDS011;57135;51.992;4.476;2023-07-13T05:55:31;4.44;;;4.12;;
69837;SDS011;57135;51.992;4.476;2023-07-13T05:57:57;4.44;;;4.10;;
69837;SDS011;57135;51.992;4.476;2023-07-13T06:00:24;4.10;;;3.77;;
69837;SDS011;57135;51.992;4.476;2023-07-13T06:02:50;4.37;;;4.06;;
69837;SDS011;57135;51.992;4.476;2023-07-13T06:05:15;4.44;;;4.08;;
69837;SDS011;57135;51.992;4.476;2023-07-13T06:07:41;4.42;;;4.03;;
69837;SDS011;57135;51.992;4.476;2023-07-13T06:10:07;4.16;;;3.89;;
69837;SDS011;57135;51.992;4.476;2023-07-13T06:12:33;4.21;;;3.91;;
69837;SDS011;57135;51.992;4.476;2023-07-13T06:14:59;4.31;;;4.04;;
69837;SDS011;57135;51.992;4.476;2023-07-13T06:17:24;4.33;;;4.04;;
69837;SDS011;57135;51.992;4.476;2023-07-13T06:19:50;4.51;;;4.17;;
69837;SDS011;57135;51.992;4.476;2023-07-13T06:22:16;4.22;;;3.92;;
69837;SDS011;57135;51.992;4.476;2023-07-13T06:24:41;4.53;;;4.13;;
69837;SDS011;57135;51.992;4.476;2023-07-13T06:27:07;3.98;;;3.74;;
69837;SDS011;57135;51.992;4.476;2023-07-13T06:29:32;4.25;;;3.98;;
69837;SDS011;57135;51.992;4.476;2023-07-13T06:31:58;4.31;;;4.02;;
69837;SDS011;57135;51.992;4.476;2023-07-13T06:34:23;4.30;;;4.02;;
69837;SDS011;57135;51.992;4.476;2023-07-13T06:36:49;3.92;;;3.71;;
69837;SDS011;57135;51.992;4.476;2023-07-13T06:39:15;4.11;;;3.91;;
69837;SDS011;57135;51.992;4.476;2023-07-13T06:41:40;4.18;;;3.94;;
69837;SDS011;57135;51.992;4.476;2023-07-13T06:44:06;4.18;;;3.96;;
69837;SDS011;57135;51.992;4.476;2023-07-13T06:46:31;3.72;;;3.56;;
69837;SDS011;57135;51.992;4.476;2023-07-13T06:48:57;3.71;;;3.53;;
69837;SDS011;57135;51.992;4.476;2023-07-13T06:51:23;4.09;;;3.89;;
69837;SDS011;57135;51.992;4.476;2023-07-13T06:53:48;3.72;;;3.59;;
69837;SDS011;57135;51.992;4.476;2023-07-13T06:56:15;3.72;;;3.53;;
69837;SDS011;57135;51.992;4.476;2023-07-13T06:58:40;4.24;;;3.99;;
69837;SDS011;57135;51.992;4.476;2023-07-13T07:01:06;3.81;;;3.63;;
69837;SDS011;57135;51.992;4.476;2023-07-13T07:03:32;4.43;;;4.10;;
69837;SDS011;57135;51.992;4.476;2023-07-13T07:06:12;4.15;;;3.87;;
69837;SDS011;57135;51.992;4.476;2023-07-13T07:08:42;4.36;;;4.13;;
69837;SDS011;57135;51.992;4.476;2023-07-13T07:11:09;3.94;;;3.73;;
69837;SDS011;57135;51.992;4.476;2023-07-13T07:13:40;4.03;;;3.82;;
69837;SDS011;57135;51.992;4.476;2023-07-13T07:16:06;4.15;;;3.97;;
69837;SDS011;57135;51.992;4.476;2023-07-13T07:18:31;4.62;;;4.50;;
69837;SDS011;57135;51.992;4.476;2023-07-13T07:20:57;4.01;;;3.94;;
69837;SDS011;57135;51.992;4.476;2023-07-13T07:23:23;4.10;;;4.00;;
69837;SDS011;57135;51.992;4.476;2023-07-13T07:25:48;4.10;;;3.97;;
69837;SDS011;57135;51.992;4.476;2023-07-13T07:28:15;4.17;;;4.05;;
69837;SDS011;57135;51.992;4.476;2023-07-13T07:30:43;3.77;;;3.63;;
69837;SDS011;57135;51.992;4.476;2023-07-13T07:33:09;3.75;;;3.57;;
69837;SDS011;57135;51.992;4.476;2023-07-13T07:35:35;3.96;;;3.82;;
69837;SDS011;57135;51.992;4.476;2023-07-13T07:38:01;3.97;;;3.83;;
69837;SDS011;57135;51.992;4.476;2023-07-13T07:40:26;4.21;;;4.06;;
69837;SDS011;57135;51.992;4.476;2023-07-13T07:42:52;4.03;;;3.87;;
69837;SDS011;57135;51.992;4.476;2023-07-13T07:45:18;3.89;;;3.68;;
69837;SDS011;57135;51.992;4.476;2023-07-13T07:47:44;3.84;;;3.63;;
69837;SDS011;57135;51.992;4.476;2023-07-13T07:50:10;4.03;;;3.87;;
69837;SDS011;57135;51.992;4.476;2023-07-13T07:52:36;4.33;;;4.17;;
69837;SDS011;57135;51.992;4.476;2023-07-13T07:55:03;4.21;;;4.08;;
69837;SDS011;57135;51.992;4.476;2023-07-13T07:57:29;4.13;;;3.93;;
69837;SDS011;57135;51.992;4.476;2023-07-13T07:59:55;3.96;;;3.79;;
69837;SDS011;57135;51.992;4.476;2023-07-13T08:02:20;4.50;;;4.29;;
69837;SDS011;57135;51.992;4.476;2023-07-13T08:04:46;4.14;;;4.10;;
69837;SDS011;57135;51.992;4.476;2023-07-13T08:07:11;4.16;;;4.08;;
69837;SDS011;57135;51.992;4.476;2023-07-13T08:09:37;4.11;;;3.95;;
69837;SDS011;57135;51.992;4.476;2023-07-13T08:12:05;3.84;;;3.76;;
69837;SDS011;57135;51.992;4.476;2023-07-13T08:14:32;3.86;;;3.86;;
69837;SDS011;57135;51.992;4.476;2023-07-13T08:16:57;4.03;;;4.03;;
69837;SDS011;57135;51.992;4.476;2023-07-13T08:19:23;4.03;;;4.00;;
69837;SDS011;57135;51.992;4.476;2023-07-13T08:21:49;3.88;;;3.86;;
69837;SDS011;57135;51.992;4.476;2023-07-13T08:24:14;3.86;;;3.85;;
69837;SDS011;57135;51.992;4.476;2023-07-13T08:26:40;4.04;;;4.02;;
69837;SDS011;57135;51.992;4.476;2023-07-13T08:29:06;3.63;;;3.60;;
69837;SDS011;57135;51.992;4.476;2023-07-13T08:31:31;4.00;;;3.95;;
69837;SDS011;57135;51.992;4.476;2023-07-13T08:33:57;3.95;;;3.92;;
69837;SDS011;57135;51.992;4.476;2023-07-13T08:36:22;3.84;;;3.75;;
69837;SDS011;57135;51.992;4.476;2023-07-13T08:38:48;3.80;;;3.71;;
69837;SDS011;57135;51.992;4.476;2023-07-13T08:41:15;3.92;;;3.88;;
69837;SDS011;57135;51.992;4.476;2023-07-13T08:43:45;3.57;;;3.57;;
69837;SDS011;57135;51.992;4.476;2023-07-13T08:46:23;3.28;;;3.28;;
69837;SDS011;57135;51.992;4.476;2023-07-13T08:48:53;3.64;;;3.64;;
69837;SDS011;57135;51.992;4.476;2023-07-13T08:53:54;4.67;;;4.58;;
69837;SDS011;57135;51.992;4.476;2023-07-13T08:56:25;4.24;;;4.16;;
69837;SDS011;57135;51.992;4.476;2023-07-13T08:58:55;4.48;;;4.33;;
69837;SDS011;57135;51.992;4.476;2023-07-13T09:04:23;4.10;;;4.00;;
69837;SDS011;57135;51.992;4.476;2023-07-13T09:11:57;3.73;;;3.73;;
69837;SDS011;57135;51.992;4.476;2023-07-13T09:14:46;4.11;;;4.10;;
69837;SDS011;57135;51.992;4.476;2023-07-13T09:17:16;4.68;;;4.63;;
69837;SDS011;57135;51.992;4.476;2023-07-13T09:19:46;4.34;;;4.29;;
69837;SDS011;57135;51.992;4.476;2023-07-13T09:22:25;4.36;;;4.28;;
69837;SDS011;57135;51.992;4.476;2023-07-13T09:25:02;3.69;;;3.62;;
69837;SDS011;57135;51.992;4.476;2023-07-13T09:27:33;3.11;;;3.09;;
69837;SDS011;57135;51.992;4.476;2023-07-13T09:32:43;3.70;;;3.65;;
69837;SDS011;57135;51.992;4.476;2023-07-13T09:35:16;3.78;;;3.70;;
69837;SDS011;57135;51.992;4.476;2023-07-13T09:37:45;4.07;;;3.96;;
69837;SDS011;57135;51.992;4.476;2023-07-13T09:40:17;4.07;;;3.98;;
69837;SDS011;57135;51.992;4.476;2023-07-13T09:42:51;4.01;;;3.93;;
69837;SDS011;57135;51.992;4.476;2023-07-13T09:45:29;4.27;;;4.20;;
69837;SDS011;57135;51.992;4.476;2023-07-13T09:47:59;4.50;;;4.50;;
69837;SDS011;57135;51.992;4.476;2023-07-13T09:50:28;4.60;;;4.60;;
69837;SDS011;57135;51.992;4.476;2023-07-13T09:52:54;4.70;;;4.70;;
69837;SDS011;57135;51.992;4.476;2023-07-13T09:57:54;5.00;;;4.97;;
69837;SDS011;57135;51.992;4.476;2023-07-13T10:00:27;5.18;;;5.17;;
69837;SDS011;57135;51.992;4.476;2023-07-13T10:03:01;5.04;;;5.04;;
69837;SDS011;57135;51.992;4.476;2023-07-13T10:05:48;4.80;;;4.79;;
69837;SDS011;57135;51.992;4.476;2023-07-13T10:08:25;4.56;;;4.53;;
69837;SDS011;57135;51.992;4.476;2023-07-13T10:13:44;4.24;;;4.18;;
69837;SDS011;57135;51.992;4.476;2023-07-13T10:16:16;4.12;;;4.11;;
69837;SDS011;57135;51.992;4.476;2023-07-13T10:18:50;4.43;;;4.40;;
69837;SDS011;57135;51.992;4.476;2023-07-13T10:21:22;4.38;;;4.36;;
69837;SDS011;57135;51.992;4.476;2023-07-13T10:23:54;3.80;;;3.80;;
69837;SDS011;57135;51.992;4.476;2023-07-13T10:26:25;3.91;;;3.91;;
69837;SDS011;57135;51.992;4.476;2023-07-13T10:28:56;4.19;;;4.11;;
69837;SDS011;57135;51.992;4.476;2023-07-13T10:31:35;4.25;;;4.13;;
69837;SDS011;57135;51.992;4.476;2023-07-13T10:34:03;4.10;;;4.06;;
69837;SDS011;57135;51.992;4.476;2023-07-13T10:36:34;3.75;;;3.74;;
69837;SDS011;57135;51.992;4.476;2023-07-13T10:39:06;3.59;;;3.59;;
69837;SDS011;57135;51.992;4.476;2023-07-13T10:41:34;3.46;;;3.44;;
69837;SDS011;57135;51.992;4.476;2023-07-13T10:44:04;3.96;;;3.89;;
69837;SDS011;57135;51.992;4.476;2023-07-13T10:46:42;3.84;;;3.84;;
69837;SDS011;57135;51.992;4.476;2023-07-13T10:49:10;3.65;;;3.65;;
69837;SDS011;57135;51.992;4.476;2023-07-13T10:51:37;3.70;;;3.70;;
69837;SDS011;57135;51.992;4.476;2023-07-13T10:54:37;3.75;;;3.74;;
69837;SDS011;57135;51.992;4.476;2023-07-13T10:59:42;4.51;;;4.51;;
69837;SDS011;57135;51.992;4.476;2023-07-13T11:02:21;4.18;;;4.18;;
69837;SDS011;57135;51.992;4.476;2023-07-13T11:04:53;4.10;;;4.09;;
69837;SDS011;57135;51.992;4.476;2023-07-13T11:07:21;4.13;;;4.11;;
69837;SDS011;57135;51.992;4.476;2023-07-13T11:09:53;3.89;;;3.87;;
69837;SDS011;57135;51.992;4.476;2023-07-13T11:20:08;3.55;;;3.55;;
69837;SDS011;57135;51.992;4.476;2023-07-13T11:22:45;3.32;;;3.32;;
69837;SDS011;57135;51.992;4.476;2023-07-13T11:25:32;3.76;;;3.74;;
69837;SDS011;57135;51.992;4.476;2023-07-13T11:36:05;3.99;;;3.99;;
69837;SDS011;57135;51.992;4.476;2023-07-13T11:38:45;3.92;;;3.92;;
69837;SDS011;57135;51.992;4.476;2023-07-13T11:41:23;3.81;;;3.81;;
69837;SDS011;57135;51.992;4.476;2023-07-13T11:43:54;3.81;;;3.81;;
69837;SDS011;57135;51.992;4.476;2023-07-13T11:46:28;3.63;;;3.63;;
69837;SDS011;57135;51.992;4.476;2023-07-13T11:48:54;3.62;;;3.62;;
69837;SDS011;57135;51.992;4.476;2023-07-13T11:53:54;3.86;;;3.86;;
69837;SDS011;57135;51.992;4.476;2023-07-13T11:56:23;3.50;;;3.50;;
69837;SDS011;57135;51.992;4.476;2023-07-13T11:58:51;3.67;;;3.67;;
69837;SDS011;57135;51.992;4.476;2023-07-13T12:01:24;3.64;;;3.63;;
69837;SDS011;57135;51.992;4.476;2023-07-13T12:03:57;3.68;;;3.66;;
69837;SDS011;57135;51.992;4.476;2023-07-13T12:06:27;3.73;;;3.73;;
69837;SDS011;57135;51.992;4.476;2023-07-13T12:08:58;3.89;;;3.87;;
69837;SDS011;57135;51.992;4.476;2023-07-13T12:11:25;3.46;;;3.44;;
69837;SDS011;57135;51.992;4.476;2023-07-13T12:13:52;3.45;;;3.44;;
69837;SDS011;57135;51.992;4.476;2023-07-13T12:16:29;3.68;;;3.67;;
69837;SDS011;57135;51.992;4.476;2023-07-13T12:18:58;3.84;;;3.82;;
69837;SDS011;57135;51.992;4.476;2023-07-13T12:21:43;3.53;;;3.53;;
69837;SDS011;57135;51.992;4.476;2023-07-13T12:24:19;3.50;;;3.50;;
69837;SDS011;57135;51.992;4.476;2023-07-13T12:26:51;3.61;;;3.59;;
69837;SDS011;57135;51.992;4.476;2023-07-13T12:29:19;3.66;;;3.61;;
69837;SDS011;57135;51.992;4.476;2023-07-13T12:31:47;3.84;;;3.79;;
69837;SDS011;57135;51.992;4.476;2023-07-13T12:34:16;3.36;;;3.35;;
69837;SDS011;57135;51.992;4.476;2023-07-13T12:42:13;3.12;;;3.10;;
69837;SDS011;57135;51.992;4.476;2023-07-13T12:44:53;3.01;;;3.00;;
69837;SDS011;57135;51.992;4.476;2023-07-13T12:47:22;3.09;;;3.06;;
69837;SDS011;57135;51.992;4.476;2023-07-13T12:49:49;2.98;;;2.92;;
69837;SDS011;57135;51.992;4.476;2023-07-13T12:52:29;2.97;;;2.93;;
69837;SDS011;57135;51.992;4.476;2023-07-13T12:55:06;2.95;;;2.91;;
69837;SDS011;57135;51.992;4.476;2023-07-13T12:57:44;2.72;;;2.68;;
69837;SDS011;57135;51.992;4.476;2023-07-13T13:00:23;2.97;;;2.95;;
69837;SDS011;57135;51.992;4.476;2023-07-13T13:02:56;2.92;;;2.88;;
69837;SDS011;57135;51.992;4.476;2023-07-13T13:05:25;2.97;;;2.90;;
69837;SDS011;57135;51.992;4.476;2023-07-13T13:07:51;2.83;;;2.75;;
69837;SDS011;57135;51.992;4.476;2023-07-13T13:10:17;2.91;;;2.83;;
69837;SDS011;57135;51.992;4.476;2023-07-13T13:12:43;2.87;;;2.82;;
69837;SDS011;57135;51.992;4.476;2023-07-13T13:15:09;2.79;;;2.73;;
69837;SDS011;57135;51.992;4.476;2023-07-13T13:17:36;2.79;;;2.75;;
69837;SDS011;57135;51.992;4.476;2023-07-13T13:20:16;2.91;;;2.83;;
69837;SDS011;57135;51.992;4.476;2023-07-13T13:22:43;2.92;;;2.85;;
69837;SDS011;57135;51.992;4.476;2023-07-13T13:25:10;2.81;;;2.77;;
69837;SDS011;57135;51.992;4.476;2023-07-13T13:27:43;2.73;;;2.70;;
69837;SDS011;57135;51.992;4.476;2023-07-13T13:30:13;2.82;;;2.76;;
69837;SDS011;57135;51.992;4.476;2023-07-13T13:32:44;2.75;;;2.68;;
69837;SDS011;57135;51.992;4.476;2023-07-13T13:35:15;2.87;;;2.81;;
69837;SDS011;57135;51.992;4.476;2023-07-13T13:37:43;2.93;;;2.88;;
69837;SDS011;57135;51.992;4.476;2023-07-13T13:40:16;2.87;;;2.82;;
69837;SDS011;57135;51.992;4.476;2023-07-13T13:42:44;2.69;;;2.66;;
69837;SDS011;57135;51.992;4.476;2023-07-13T13:45:10;2.59;;;2.56;;
69837;SDS011;57135;51.992;4.476;2023-07-13T13:47:37;2.61;;;2.57;;
69837;SDS011;57135;51.992;4.476;2023-07-13T13:50:15;3.06;;;2.97;;
69837;SDS011;57135;51.992;4.476;2023-07-13T13:52:47;3.19;;;3.02;;
69837;SDS011;57135;51.992;4.476;2023-07-13T13:55:14;2.76;;;2.63;;
69837;SDS011;57135;51.992;4.476;2023-07-13T13:57:45;2.89;;;2.78;;
69837;SDS011;57135;51.992;4.476;2023-07-13T14:00:11;2.86;;;2.73;;
69837;SDS011;57135;51.992;4.476;2023-07-13T14:02:39;2.89;;;2.83;;
69837;SDS011;57135;51.992;4.476;2023-07-13T14:05:09;2.57;;;2.56;;
69837;SDS011;57135;51.992;4.476;2023-07-13T14:07:38;2.68;;;2.64;;
69837;SDS011;57135;51.992;4.476;2023-07-13T14:10:08;2.59;;;2.55;;
69837;SDS011;57135;51.992;4.476;2023-07-13T14:12:37;2.74;;;2.68;;
69837;SDS011;57135;51.992;4.476;2023-07-13T14:15:03;2.99;;;2.92;;
69837;SDS011;57135;51.992;4.476;2023-07-13T14:17:29;2.67;;;2.61;;
69837;SDS011;57135;51.992;4.476;2023-07-13T14:19:55;2.84;;;2.77;;
69837;SDS011;57135;51.992;4.476;2023-07-13T14:22:24;2.77;;;2.73;;
69837;SDS011;57135;51.992;4.476;2023-07-13T14:24:55;2.75;;;2.72;;
69837;SDS011;57135;51.992;4.476;2023-07-13T14:27:22;2.80;;;2.77;;
69837;SDS011;57135;51.992;4.476;2023-07-13T14:29:47;2.79;;;2.75;;
69837;SDS011;57135;51.992;4.476;2023-07-13T14:32:13;2.81;;;2.75;;
69837;SDS011;57135;51.992;4.476;2023-07-13T14:34:39;2.58;;;2.54;;
69837;SDS011;57135;51.992;4.476;2023-07-13T14:37:04;2.57;;;2.57;;
69837;SDS011;57135;51.992;4.476;2023-07-13T14:39:33;2.50;;;2.47;;
69837;SDS011;57135;51.992;4.476;2023-07-13T14:41:58;2.68;;;2.65;;
69837;SDS011;57135;51.992;4.476;2023-07-13T14:44:25;2.73;;;2.70;;
69837;SDS011;57135;51.992;4.476;2023-07-13T14:46:54;3.14;;;3.06;;
69837;SDS011;57135;51.992;4.476;2023-07-13T14:49:32;3.21;;;3.11;;
69837;SDS011;57135;51.992;4.476;2023-07-13T14:52:01;3.01;;;2.94;;
69837;SDS011;57135;51.992;4.476;2023-07-13T14:54:33;2.98;;;2.93;;
69837;SDS011;57135;51.992;4.476;2023-07-13T14:56:59;3.22;;;3.17;;
69837;SDS011;57135;51.992;4.476;2023-07-13T14:59:26;3.17;;;3.12;;
69837;SDS011;57135;51.992;4.476;2023-07-13T15:01:51;3.25;;;3.21;;
69837;SDS011;57135;51.992;4.476;2023-07-13T15:04:17;3.09;;;3.04;;
69837;SDS011;57135;51.992;4.476;2023-07-13T15:09:43;3.12;;;3.06;;
69837;SDS011;57135;51.992;4.476;2023-07-13T15:12:08;3.29;;;3.23;;
69837;SDS011;57135;51.992;4.476;2023-07-13T15:14:34;2.71;;;2.70;;
69837;SDS011;57135;51.992;4.476;2023-07-13T15:16:59;2.49;;;2.46;;
69837;SDS011;57135;51.992;4.476;2023-07-13T15:19:26;2.84;;;2.82;;
69837;SDS011;57135;51.992;4.476;2023-07-13T15:21:51;2.79;;;2.79;;
69837;SDS011;57135;51.992;4.476;2023-07-13T15:24:20;2.71;;;2.71;;
69837;SDS011;57135;51.992;4.476;2023-07-13T15:26:46;2.78;;;2.76;;
69837;SDS011;57135;51.992;4.476;2023-07-13T15:29:14;2.95;;;2.90;;
69837;SDS011;57135;51.992;4.476;2023-07-13T15:31:41;3.07;;;3.01;;
69837;SDS011;57135;51.992;4.476;2023-07-13T15:34:14;3.07;;;3.05;;
69837;SDS011;57135;51.992;4.476;2023-07-13T15:36:50;2.76;;;2.75;;
69837;SDS011;57135;51.992;4.476;2023-07-13T15:39:15;3.09;;;3.04;;
69837;SDS011;57135;51.992;4.476;2023-07-13T15:41:42;3.24;;;3.17;;
69837;SDS011;57135;51.992;4.476;2023-07-13T15:44:23;3.14;;;3.09;;